sensor_id;sensor_type;location;lat;lon;timestamp;temperature;humidity
19538;DHT22;9914;51.008;4.300;2024-02-14T00:00:00;10.20;99.90
19538;DHT22;9914;51.008;4.300;2024-02-14T00:02:26;10.20;99.90
19538;DHT22;9914;51.008;4.300;2024-02-14T00:04:53;10.20;99.90
19538;DHT22;9914;51.008;4.300;2024-02-14T00:07:19;10.30;99.90
19538;DHT22;9914;51.008;4.300;2024-02-14T00:09:45;10.30;99.90
19538;DHT22;9914;51.008;4.300;2024-02-14T00:12:10;10.40;99.90
19538;DHT22;9914;51.008;4.300;2024-02-14T00:14:37;10.40;99.90
19538;DHT22;9914;51.008;4.300;2024-02-14T00:17:03;10.40;99.90
19538;DHT22;9914;51.008;4.300;2024-02-14T00:19:30;10.50;99.90
19538;DHT22;9914;51.008;4.300;2024-02-14T00:21:56;10.40;99.90
19538;DHT22;9914;51.008;4.300;2024-02-14T00:24:21;10.40;99.90
19538;DHT22;9914;51.008;4.300;2024-02-14T00:26:50;10.50;99.90
19538;DHT22;9914;51.008;4.300;2024-02-14T00:29:16;10.40;99.90
19538;DHT22;9914;51.008;4.300;2024-02-14T00:31:41;10.40;99.90
19538;DHT22;9914;51.008;4.300;2024-02-14T00:34:10;10.50;99.90
19538;DHT22;9914;51.008;4.300;2024-02-14T00:36:35;10.60;99.90
19538;DHT22;9914;51.008;4.300;2024-02-14T00:39:01;10.50;99.90
19538;DHT22;9914;51.008;4.300;2024-02-14T00:41:27;10.50;99.90
19538;DHT22;9914;51.008;4.300;2024-02-14T00:43:55;10.50;99.90
19538;DHT22;9914;51.008;4.300;2024-02-14T00:46:21;10.60;99.90
19538;DHT22;9914;51.008;4.300;2024-02-14T00:48:47;10.60;99.90
19538;DHT22;9914;51.008;4.300;2024-02-14T00:51:13;10.60;99.90
19538;DHT22;9914;51.008;4.300;2024-02-14T00:53:39;10.60;99.90
19538;DHT22;9914;51.008;4.300;2024-02-14T00:56:04;10.60;99.90
19538;DHT22;9914;51.008;4.300;2024-02-14T00:58:31;10.60;99.90
19538;DHT22;9914;51.008;4.300;2024-02-14T01:00:57;10.60;99.90
19538;DHT22;9914;51.008;4.300;2024-02-14T01:03:23;10.70;99.90
19538;DHT22;9914;51.008;4.300;2024-02-14T01:05:48;10.80;99.90
19538;DHT22;9914;51.008;4.300;2024-02-14T01:08:14;10.80;99.90
19538;DHT22;9914;51.008;4.300;2024-02-14T01:10:40;10.70;99.90
19538;DHT22;9914;51.008;4.300;2024-02-14T01:13:05;10.70;99.90
19538;DHT22;9914;51.008;4.300;2024-02-14T01:15:32;10.60;99.90
19538;DHT22;9914;51.008;4.300;2024-02-14T01:17:59;10.50;99.90
19538;DHT22;9914;51.008;4.300;2024-02-14T01:20:24;10.40;99.90
19538;DHT22;9914;51.008;4.300;2024-02-14T01:22:50;10.50;99.90
19538;DHT22;9914;51.008;4.300;2024-02-14T01:25:16;10.50;99.90
19538;DHT22;9914;51.008;4.300;2024-02-14T01:27:41;10.50;99.90
19538;DHT22;9914;51.008;4.300;2024-02-14T01:30:08;10.60;99.90
19538;DHT22;9914;51.008;4.300;2024-02-14T01:32:34;10.60;99.90
19538;DHT22;9914;51.008;4.300;2024-02-14T01:35:00;10.70;99.90
19538;DHT22;9914;51.008;4.300;2024-02-14T01:37:26;10.70;99.90
19538;DHT22;9914;51.008;4.300;2024-02-14T01:39:54;10.70;99.90
19538;DHT22;9914;51.008;4.300;2024-02-14T01:42:20;10.70;99.90
19538;DHT22;9914;51.008;4.300;2024-02-14T01:44:46;10.70;99.90
19538;DHT22;9914;51.008;4.300;2024-02-14T01:47:11;10.70;99.90
19538;DHT22;9914;51.008;4.300;2024-02-14T01:49:38;10.70;99.90
19538;DHT22;9914;51.008;4.300;2024-02-14T01:52:05;10.80;99.90
19538;DHT22;9914;51.008;4.300;2024-02-14T01:54:31;10.70;99.90
19538;DHT22;9914;51.008;4.300;2024-02-14T01:56:57;10.80;99.90
19538;DHT22;9914;51.008;4.300;2024-02-14T01:59:24;10.70;99.90
19538;DHT22;9914;51.008;4.300;2024-02-14T02:01:50;10.60;99.90
19538;DHT22;9914;51.008;4.300;2024-02-14T02:04:18;10.60;99.90
19538;DHT22;9914;51.008;4.300;2024-02-14T02:06:44;10.60;99.90
19538;DHT22;9914;51.008;4.300;2024-02-14T02:09:10;10.70;99.90
19538;DHT22;9914;51.008;4.300;2024-02-14T02:11:51;10.70;99.90
19538;DHT22;9914;51.008;4.300;2024-02-14T02:14:17;10.70;99.90
19538;DHT22;9914;51.008;4.300;2024-02-14T02:16:43;10.50;99.90
19538;DHT22;9914;51.008;4.300;2024-02-14T02:19:09;10.60;99.90
19538;DHT22;9914;51.008;4.300;2024-02-14T02:21:35;10.60;99.90
19538;DHT22;9914;51.008;4.300;2024-02-14T02:24:01;10.70;99.90
19538;DHT22;9914;51.008;4.300;2024-02-14T02:26:27;10.70;99.90
19538;DHT22;9914;51.008;4.300;2024-02-14T02:28:53;10.70;99.90
19538;DHT22;9914;51.008;4.300;2024-02-14T02:31:19;10.70;99.90
19538;DHT22;9914;51.008;4.300;2024-02-14T02:33:45;10.80;99.90
19538;DHT22;9914;51.008;4.300;2024-02-14T02:36:11;10.70;99.90
19538;DHT22;9914;51.008;4.300;2024-02-14T02:38:37;10.70;99.90
19538;DHT22;9914;51.008;4.300;2024-02-14T02:41:03;10.70;99.90
19538;DHT22;9914;51.008;4.300;2024-02-14T02:43:32;10.70;99.90
19538;DHT22;9914;51.008;4.300;2024-02-14T02:45:58;10.80;99.90
19538;DHT22;9914;51.008;4.300;2024-02-14T02:48:24;10.70;99.90
19538;DHT22;9914;51.008;4.300;2024-02-14T02:50:50;10.60;99.90
19538;DHT22;9914;51.008;4.300;2024-02-14T02:53:17;10.70;99.90
19538;DHT22;9914;51.008;4.300;2024-02-14T02:55:43;10.70;99.90
19538;DHT22;9914;51.008;4.300;2024-02-14T02:58:09;10.70;99.90
19538;DHT22;9914;51.008;4.300;2024-02-14T03:00:34;10.70;99.90
19538;DHT22;9914;51.008;4.300;2024-02-14T03:03:00;10.80;99.90
19538;DHT22;9914;51.008;4.300;2024-02-14T03:05:28;10.70;99.90
19538;DHT22;9914;51.008;4.300;2024-02-14T03:07:57;10.60;99.90
19538;DHT22;9914;51.008;4.300;2024-02-14T03:10:24;10.60;99.90
19538;DHT22;9914;51.008;4.300;2024-02-14T03:12:51;10.70;99.90
19538;DHT22;9914;51.008;4.300;2024-02-14T03:15:17;10.80;99.90
19538;DHT22;9914;51.008;4.300;2024-02-14T03:17:44;10.90;99.90
19538;DHT22;9914;51.008;4.300;2024-02-14T03:20:11;10.90;99.90
19538;DHT22;9914;51.008;4.300;2024-02-14T03:22:43;11.00;99.90
19538;DHT22;9914;51.008;4.300;2024-02-14T03:25:19;11.00;99.90
19538;DHT22;9914;51.008;4.300;2024-02-14T03:27:46;11.00;99.90
19538;DHT22;9914;51.008;4.300;2024-02-14T03:30:14;11.00;99.90
19538;DHT22;9914;51.008;4.300;2024-02-14T03:32:44;10.90;99.90
19538;DHT22;9914;51.008;4.300;2024-02-14T03:35:11;10.80;99.90
19538;DHT22;9914;51.008;4.300;2024-02-14T03:37:39;10.80;99.90
19538;DHT22;9914;51.008;4.300;2024-02-14T03:40:05;10.90;99.90
19538;DHT22;9914;51.008;4.300;2024-02-14T03:42:33;10.90;99.90
19538;DHT22;9914;51.008;4.300;2024-02-14T03:45:00;10.90;99.90
19538;DHT22;9914;51.008;4.300;2024-02-14T03:47:31;10.90;99.90
19538;DHT22;9914;51.008;4.300;2024-02-14T03:49:58;10.90;99.90
19538;DHT22;9914;51.008;4.300;2024-02-14T03:52:24;11.00;99.90
19538;DHT22;9914;51.008;4.300;2024-02-14T03:54:50;11.00;99.90
19538;DHT22;9914;51.008;4.300;2024-02-14T03:57:16;11.00;99.90
19538;DHT22;9914;51.008;4.300;2024-02-14T03:59:46;11.00;99.90
19538;DHT22;9914;51.008;4.300;2024-02-14T04:02:12;11.00;99.90
19538;DHT22;9914;51.008;4.300;2024-02-14T04:04:41;11.00;99.90
19538;DHT22;9914;51.008;4.300;2024-02-14T04:07:07;11.00;99.90
19538;DHT22;9914;51.008;4.300;2024-02-14T04:09:36;11.00;99.90
19538;DHT22;9914;51.008;4.300;2024-02-14T04:12:02;11.00;99.90
19538;DHT22;9914;51.008;4.300;2024-02-14T04:14:27;11.00;99.90
19538;DHT22;9914;51.008;4.300;2024-02-14T04:16:54;11.00;99.90
19538;DHT22;9914;51.008;4.300;2024-02-14T04:19:20;11.00;99.90
19538;DHT22;9914;51.008;4.300;2024-02-14T04:21:46;11.00;99.90
19538;DHT22;9914;51.008;4.300;2024-02-14T04:24:11;11.00;99.90
19538;DHT22;9914;51.008;4.300;2024-02-14T04:26:37;11.00;99.90
19538;DHT22;9914;51.008;4.300;2024-02-14T04:29:03;11.00;99.90
19538;DHT22;9914;51.008;4.300;2024-02-14T04:31:28;11.00;99.90
19538;DHT22;9914;51.008;4.300;2024-02-14T04:33:57;11.00;99.90
19538;DHT22;9914;51.008;4.300;2024-02-14T04:36:23;11.10;99.90
19538;DHT22;9914;51.008;4.300;2024-02-14T04:38:49;11.10;99.90
19538;DHT22;9914;51.008;4.300;2024-02-14T04:41:15;11.10;99.90
19538;DHT22;9914;51.008;4.300;2024-02-14T04:43:41;11.10;99.90
19538;DHT22;9914;51.008;4.300;2024-02-14T04:46:07;11.20;99.90
19538;DHT22;9914;51.008;4.300;2024-02-14T04:48:37;11.30;99.90
19538;DHT22;9914;51.008;4.300;2024-02-14T04:51:03;11.30;99.90
19538;DHT22;9914;51.008;4.300;2024-02-14T04:53:30;11.30;99.90
19538;DHT22;9914;51.008;4.300;2024-02-14T04:55:56;11.30;99.90
19538;DHT22;9914;51.008;4.300;2024-02-14T04:58:22;11.40;99.90
19538;DHT22;9914;51.008;4.300;2024-02-14T05:00:48;11.40;99.90
19538;DHT22;9914;51.008;4.300;2024-02-14T05:03:13;11.40;99.90
19538;DHT22;9914;51.008;4.300;2024-02-14T05:05:39;11.40;99.90
19538;DHT22;9914;51.008;4.300;2024-02-14T05:08:05;11.50;99.90
19538;DHT22;9914;51.008;4.300;2024-02-14T05:10:31;11.50;99.90
19538;DHT22;9914;51.008;4.300;2024-02-14T05:12:57;11.50;99.90
19538;DHT22;9914;51.008;4.300;2024-02-14T05:15:23;11.40;99.90
19538;DHT22;9914;51.008;4.300;2024-02-14T05:17:49;11.40;99.90
19538;DHT22;9914;51.008;4.300;2024-02-14T05:20:18;11.40;99.90
19538;DHT22;9914;51.008;4.300;2024-02-14T05:22:44;11.40;99.90
19538;DHT22;9914;51.008;4.300;2024-02-14T05:25:09;11.30;99.90
19538;DHT22;9914;51.008;4.300;2024-02-14T05:27:36;11.30;99.90
19538;DHT22;9914;51.008;4.300;2024-02-14T05:30:05;11.30;99.90
19538;DHT22;9914;51.008;4.300;2024-02-14T05:32:34;11.30;99.90
19538;DHT22;9914;51.008;4.300;2024-02-14T05:35:00;11.40;99.90
19538;DHT22;9914;51.008;4.300;2024-02-14T05:37:25;11.40;99.90
19538;DHT22;9914;51.008;4.300;2024-02-14T05:39:53;11.30;99.90
19538;DHT22;9914;51.008;4.300;2024-02-14T05:42:19;11.30;99.90
19538;DHT22;9914;51.008;4.300;2024-02-14T05:44:45;11.40;99.90
19538;DHT22;9914;51.008;4.300;2024-02-14T05:47:10;11.50;99.90
19538;DHT22;9914;51.008;4.300;2024-02-14T05:49:38;11.50;99.90
19538;DHT22;9914;51.008;4.300;2024-02-14T05:52:05;11.50;99.90
19538;DHT22;9914;51.008;4.300;2024-02-14T05:54:31;11.50;99.90
19538;DHT22;9914;51.008;4.300;2024-02-14T05:56:57;11.50;99.90
19538;DHT22;9914;51.008;4.300;2024-02-14T05:59:23;11.60;99.90
19538;DHT22;9914;51.008;4.300;2024-02-14T06:01:49;11.60;99.90
19538;DHT22;9914;51.008;4.300;2024-02-14T06:04:14;11.60;99.90
19538;DHT22;9914;51.008;4.300;2024-02-14T06:06:40;11.50;99.90
19538;DHT22;9914;51.008;4.300;2024-02-14T06:09:05;11.50;99.90
19538;DHT22;9914;51.008;4.300;2024-02-14T06:11:37;11.60;99.90
19538;DHT22;9914;51.008;4.300;2024-02-14T06:14:05;11.70;99.90
19538;DHT22;9914;51.008;4.300;2024-02-14T06:16:32;11.60;99.90
19538;DHT22;9914;51.008;4.300;2024-02-14T06:18:58;11.70;99.90
19538;DHT22;9914;51.008;4.300;2024-02-14T06:21:24;11.60;99.90
19538;DHT22;9914;51.008;4.300;2024-02-14T06:23:51;11.60;99.90
19538;DHT22;9914;51.008;4.300;2024-02-14T06:26:16;11.70;99.90
19538;DHT22;9914;51.008;4.300;2024-02-14T06:28:44;11.70;99.90
19538;DHT22;9914;51.008;4.300;2024-02-14T06:31:09;11.70;99.90
19538;DHT22;9914;51.008;4.300;2024-02-14T06:33:35;11.80;99.90
19538;DHT22;9914;51.008;4.300;2024-02-14T06:36:01;11.80;99.90
19538;DHT22;9914;51.008;4.300;2024-02-14T06:38:28;11.80;99.90
19538;DHT22;9914;51.008;4.300;2024-02-14T06:40:54;11.80;99.90
19538;DHT22;9914;51.008;4.300;2024-02-14T06:43:19;11.90;99.90
19538;DHT22;9914;51.008;4.300;2024-02-14T06:45:45;11.90;99.90
19538;DHT22;9914;51.008;4.300;2024-02-14T06:48:11;11.80;99.90
19538;DHT22;9914;51.008;4.300;2024-02-14T06:50:37;11.80;99.90
19538;DHT22;9914;51.008;4.300;2024-02-14T06:53:03;11.80;99.90
19538;DHT22;9914;51.008;4.300;2024-02-14T06:55:29;11.80;99.90
19538;DHT22;9914;51.008;4.300;2024-02-14T06:57:58;11.90;99.90
19538;DHT22;9914;51.008;4.300;2024-02-14T07:00:23;11.90;99.90
19538;DHT22;9914;51.008;4.300;2024-02-14T07:02:49;11.70;99.90
19538;DHT22;9914;51.008;4.300;2024-02-14T07:05:15;11.80;99.90
19538;DHT22;9914;51.008;4.300;2024-02-14T07:07:41;11.80;99.90
19538;DHT22;9914;51.008;4.300;2024-02-14T07:10:07;11.90;99.90
19538;DHT22;9914;51.008;4.300;2024-02-14T07:12:33;11.90;99.90
19538;DHT22;9914;51.008;4.300;2024-02-14T07:14:59;11.90;99.90
19538;DHT22;9914;51.008;4.300;2024-02-14T07:17:24;11.80;99.90
19538;DHT22;9914;51.008;4.300;2024-02-14T07:19:50;11.80;99.90
19538;DHT22;9914;51.008;4.300;2024-02-14T07:22:20;11.90;99.90
19538;DHT22;9914;51.008;4.300;2024-02-14T07:24:45;12.00;99.90
19538;DHT22;9914;51.008;4.300;2024-02-14T07:27:13;12.10;99.90
19538;DHT22;9914;51.008;4.300;2024-02-14T07:29:39;12.00;99.90
19538;DHT22;9914;51.008;4.300;2024-02-14T07:32:05;12.00;99.90
19538;DHT22;9914;51.008;4.300;2024-02-14T07:34:32;12.00;99.90
19538;DHT22;9914;51.008;4.300;2024-02-14T07:36:57;12.10;99.90
19538;DHT22;9914;51.008;4.300;2024-02-14T07:39:23;12.00;99.90
19538;DHT22;9914;51.008;4.300;2024-02-14T07:41:49;12.10;99.90
19538;DHT22;9914;51.008;4.300;2024-02-14T07:44:14;12.20;99.90
19538;DHT22;9914;51.008;4.300;2024-02-14T07:46:41;12.20;99.90
19538;DHT22;9914;51.008;4.300;2024-02-14T07:49:07;12.10;99.90
19538;DHT22;9914;51.008;4.300;2024-02-14T07:51:33;12.20;99.90
19538;DHT22;9914;51.008;4.300;2024-02-14T07:54:03;12.20;99.90
19538;DHT22;9914;51.008;4.300;2024-02-14T07:56:29;12.30;99.90
19538;DHT22;9914;51.008;4.300;2024-02-14T07:58:55;12.30;99.90
19538;DHT22;9914;51.008;4.300;2024-02-14T08:01:20;12.30;99.90
19538;DHT22;9914;51.008;4.300;2024-02-14T08:03:46;12.40;99.90
19538;DHT22;9914;51.008;4.300;2024-02-14T08:06:12;12.40;99.90
19538;DHT22;9914;51.008;4.300;2024-02-14T08:08:38;12.40;99.90
19538;DHT22;9914;51.008;4.300;2024-02-14T08:11:04;12.30;99.90
19538;DHT22;9914;51.008;4.300;2024-02-14T08:13:30;12.30;99.90
19538;DHT22;9914;51.008;4.300;2024-02-14T08:15:55;12.30;99.90
19538;DHT22;9914;51.008;4.300;2024-02-14T08:18:21;12.20;99.90
19538;DHT22;9914;51.008;4.300;2024-02-14T08:20:48;12.20;99.90
19538;DHT22;9914;51.008;4.300;2024-02-14T08:23:14;12.20;99.90
19538;DHT22;9914;51.008;4.300;2024-02-14T08:25:39;12.20;99.90
19538;DHT22;9914;51.008;4.300;2024-02-14T08:28:06;12.20;99.90
19538;DHT22;9914;51.008;4.300;2024-02-14T08:30:33;12.20;99.90
19538;DHT22;9914;51.008;4.300;2024-02-14T08:32:59;12.20;99.90
19538;DHT22;9914;51.008;4.300;2024-02-14T08:35:24;12.20;99.90
19538;DHT22;9914;51.008;4.300;2024-02-14T08:37:50;12.20;99.90
19538;DHT22;9914;51.008;4.300;2024-02-14T08:40:15;12.30;99.90
19538;DHT22;9914;51.008;4.300;2024-02-14T08:42:41;12.30;99.90
19538;DHT22;9914;51.008;4.300;2024-02-14T08:45:07;12.40;99.90
19538;DHT22;9914;51.008;4.300;2024-02-14T08:47:34;12.40;99.90
19538;DHT22;9914;51.008;4.300;2024-02-14T08:49:59;12.40;99.90
19538;DHT22;9914;51.008;4.300;2024-02-14T08:52:26;12.40;99.90
19538;DHT22;9914;51.008;4.300;2024-02-14T08:54:52;12.50;99.90
19538;DHT22;9914;51.008;4.300;2024-02-14T08:57:17;12.60;99.90
19538;DHT22;9914;51.008;4.300;2024-02-14T08:59:46;12.50;99.90
19538;DHT22;9914;51.008;4.300;2024-02-14T09:02:14;12.50;99.90
19538;DHT22;9914;51.008;4.300;2024-02-14T09:04:40;12.50;99.90
19538;DHT22;9914;51.008;4.300;2024-02-14T09:07:10;12.60;99.90
19538;DHT22;9914;51.008;4.300;2024-02-14T09:09:35;12.70;99.90
19538;DHT22;9914;51.008;4.300;2024-02-14T09:12:03;12.70;99.90
19538;DHT22;9914;51.008;4.300;2024-02-14T09:14:29;12.70;99.90
19538;DHT22;9914;51.008;4.300;2024-02-14T09:16:56;12.60;99.90
19538;DHT22;9914;51.008;4.300;2024-02-14T09:19:22;12.60;99.90
19538;DHT22;9914;51.008;4.300;2024-02-14T09:21:48;12.70;99.90
19538;DHT22;9914;51.008;4.300;2024-02-14T09:24:13;12.70;99.90
19538;DHT22;9914;51.008;4.300;2024-02-14T09:26:39;12.70;99.90
19538;DHT22;9914;51.008;4.300;2024-02-14T09:29:05;12.70;99.90
19538;DHT22;9914;51.008;4.300;2024-02-14T09:31:31;12.80;99.90
19538;DHT22;9914;51.008;4.300;2024-02-14T09:33:57;12.70;99.90
19538;DHT22;9914;51.008;4.300;2024-02-14T09:36:26;12.80;99.90
19538;DHT22;9914;51.008;4.300;2024-02-14T09:38:52;12.70;99.90
19538;DHT22;9914;51.008;4.300;2024-02-14T09:41:25;12.80;99.90
19538;DHT22;9914;51.008;4.300;2024-02-14T09:43:54;12.80;99.90
19538;DHT22;9914;51.008;4.300;2024-02-14T09:46:21;12.80;99.90
19538;DHT22;9914;51.008;4.300;2024-02-14T09:48:50;12.80;99.90
19538;DHT22;9914;51.008;4.300;2024-02-14T09:51:17;12.90;99.90
19538;DHT22;9914;51.008;4.300;2024-02-14T09:53:43;12.90;99.90
19538;DHT22;9914;51.008;4.300;2024-02-14T09:56:10;12.80;99.90
19538;DHT22;9914;51.008;4.300;2024-02-14T09:58:37;12.70;99.90
19538;DHT22;9914;51.008;4.300;2024-02-14T10:01:02;12.80;99.90
19538;DHT22;9914;51.008;4.300;2024-02-14T10:03:28;12.70;99.90
19538;DHT22;9914;51.008;4.300;2024-02-14T10:05:54;12.80;99.90
19538;DHT22;9914;51.008;4.300;2024-02-14T10:08:19;12.90;99.90
19538;DHT22;9914;51.008;4.300;2024-02-14T10:10:49;12.90;99.90
19538;DHT22;9914;51.008;4.300;2024-02-14T10:13:15;12.90;99.90
19538;DHT22;9914;51.008;4.300;2024-02-14T10:15:41;12.90;99.90
19538;DHT22;9914;51.008;4.300;2024-02-14T10:18:07;12.90;99.90
19538;DHT22;9914;51.008;4.300;2024-02-14T10:20:35;13.00;99.90
19538;DHT22;9914;51.008;4.300;2024-02-14T10:23:07;12.90;99.90
19538;DHT22;9914;51.008;4.300;2024-02-14T10:25:34;13.00;99.90
19538;DHT22;9914;51.008;4.300;2024-02-14T10:28:07;13.10;99.90
19538;DHT22;9914;51.008;4.300;2024-02-14T10:30:36;13.10;99.90
19538;DHT22;9914;51.008;4.300;2024-02-14T10:33:04;13.20;99.90
19538;DHT22;9914;51.008;4.300;2024-02-14T10:35:34;13.10;99.90
19538;DHT22;9914;51.008;4.300;2024-02-14T10:38:02;13.10;99.90
19538;DHT22;9914;51.008;4.300;2024-02-14T10:40:28;13.10;99.90
19538;DHT22;9914;51.008;4.300;2024-02-14T10:42:55;13.10;99.90
19538;DHT22;9914;51.008;4.300;2024-02-14T10:45:23;13.20;99.90
19538;DHT22;9914;51.008;4.300;2024-02-14T10:47:51;13.20;99.90
19538;DHT22;9914;51.008;4.300;2024-02-14T10:50:21;13.00;99.90
19538;DHT22;9914;51.008;4.300;2024-02-14T10:52:48;13.20;99.90
19538;DHT22;9914;51.008;4.300;2024-02-14T10:55:16;13.10;99.90
19538;DHT22;9914;51.008;4.300;2024-02-14T10:57:43;13.10;99.90
19538;DHT22;9914;51.008;4.300;2024-02-14T11:00:12;13.10;99.90
19538;DHT22;9914;51.008;4.300;2024-02-14T11:02:40;13.00;99.90
19538;DHT22;9914;51.008;4.300;2024-02-14T11:05:12;13.10;99.90
19538;DHT22;9914;51.008;4.300;2024-02-14T11:07:44;13.10;99.90
19538;DHT22;9914;51.008;4.300;2024-02-14T11:10:14;13.00;99.90
19538;DHT22;9914;51.008;4.300;2024-02-14T11:12:40;13.10;99.90
19538;DHT22;9914;51.008;4.300;2024-02-14T11:17:37;13.00;99.90
19538;DHT22;9914;51.008;4.300;2024-02-14T11:22:39;13.00;99.90
19538;DHT22;9914;51.008;4.300;2024-02-14T11:25:14;12.90;99.90
19538;DHT22;9914;51.008;4.300;2024-02-14T11:27:45;12.90;99.90
19538;DHT22;9914;51.008;4.300;2024-02-14T11:30:11;13.00;99.90
19538;DHT22;9914;51.008;4.300;2024-02-14T11:32:37;13.00;99.90
19538;DHT22;9914;51.008;4.300;2024-02-14T11:35:11;13.00;99.90
19538;DHT22;9914;51.008;4.300;2024-02-14T11:37:38;12.90;99.90
19538;DHT22;9914;51.008;4.300;2024-02-14T11:40:04;13.00;99.90
19538;DHT22;9914;51.008;4.300;2024-02-14T11:42:29;13.00;99.90
19538;DHT22;9914;51.008;4.300;2024-02-14T11:44:56;13.00;99.90
19538;DHT22;9914;51.008;4.300;2024-02-14T11:47:22;13.20;99.90
19538;DHT22;9914;51.008;4.300;2024-02-14T11:49:48;13.10;99.90
19538;DHT22;9914;51.008;4.300;2024-02-14T11:52:14;13.20;99.90
19538;DHT22;9914;51.008;4.300;2024-02-14T11:54:40;13.20;99.90
19538;DHT22;9914;51.008;4.300;2024-02-14T11:57:11;13.20;99.90
19538;DHT22;9914;51.008;4.300;2024-02-14T11:59:36;13.30;99.90
19538;DHT22;9914;51.008;4.300;2024-02-14T12:02:03;13.40;99.90
19538;DHT22;9914;51.008;4.300;2024-02-14T12:04:29;13.40;99.90
19538;DHT22;9914;51.008;4.300;2024-02-14T12:06:55;13.50;99.90
19538;DHT22;9914;51.008;4.300;2024-02-14T12:09:20;13.50;99.90
19538;DHT22;9914;51.008;4.300;2024-02-14T12:11:47;13.50;99.90
19538;DHT22;9914;51.008;4.300;2024-02-14T12:14:12;13.50;99.90
19538;DHT22;9914;51.008;4.300;2024-02-14T12:16:39;13.60;99.90
19538;DHT22;9914;51.008;4.300;2024-02-14T12:19:15;13.60;99.90
19538;DHT22;9914;51.008;4.300;2024-02-14T12:21:42;13.60;99.90
19538;DHT22;9914;51.008;4.300;2024-02-14T12:24:11;13.70;99.90
19538;DHT22;9914;51.008;4.300;2024-02-14T12:26:39;13.80;99.90
19538;DHT22;9914;51.008;4.300;2024-02-14T12:29:06;14.00;99.90
19538;DHT22;9914;51.008;4.300;2024-02-14T12:31:33;13.90;99.90
19538;DHT22;9914;51.008;4.300;2024-02-14T12:34:00;14.00;99.90
19538;DHT22;9914;51.008;4.300;2024-02-14T12:36:32;14.00;99.90
19538;DHT22;9914;51.008;4.300;2024-02-14T12:39:03;14.00;99.90
19538;DHT22;9914;51.008;4.300;2024-02-14T12:41:30;14.00;99.90
19538;DHT22;9914;51.008;4.300;2024-02-14T12:43:56;14.10;99.90
19538;DHT22;9914;51.008;4.300;2024-02-14T12:46:22;14.10;99.90
19538;DHT22;9914;51.008;4.300;2024-02-14T12:48:47;14.10;99.90
19538;DHT22;9914;51.008;4.300;2024-02-14T12:51:13;14.20;99.90
19538;DHT22;9914;51.008;4.300;2024-02-14T12:53:39;14.20;99.90
19538;DHT22;9914;51.008;4.300;2024-02-14T12:56:05;14.10;99.90
19538;DHT22;9914;51.008;4.300;2024-02-14T12:58:32;14.10;99.90
19538;DHT22;9914;51.008;4.300;2024-02-14T13:00:58;14.10;99.90
19538;DHT22;9914;51.008;4.300;2024-02-14T13:03:24;14.10;99.90
19538;DHT22;9914;51.008;4.300;2024-02-14T13:05:50;14.00;99.90
19538;DHT22;9914;51.008;4.300;2024-02-14T13:08:18;13.90;99.90
19538;DHT22;9914;51.008;4.300;2024-02-14T13:10:44;13.90;99.90
19538;DHT22;9914;51.008;4.300;2024-02-14T13:13:10;14.00;99.90
19538;DHT22;9914;51.008;4.300;2024-02-14T13:15:36;14.00;99.90
19538;DHT22;9914;51.008;4.300;2024-02-14T13:18:02;14.00;99.90
19538;DHT22;9914;51.008;4.300;2024-02-14T13:20:28;14.10;99.90
19538;DHT22;9914;51.008;4.300;2024-02-14T13:22:54;14.10;99.90
19538;DHT22;9914;51.008;4.300;2024-02-14T13:25:20;14.00;99.90
19538;DHT22;9914;51.008;4.300;2024-02-14T13:27:46;14.00;99.90
19538;DHT22;9914;51.008;4.300;2024-02-14T13:30:12;14.00;99.90
19538;DHT22;9914;51.008;4.300;2024-02-14T13:32:37;14.00;99.90
19538;DHT22;9914;51.008;4.300;2024-02-14T13:35:03;14.00;99.90
19538;DHT22;9914;51.008;4.300;2024-02-14T13:37:31;14.10;99.90
19538;DHT22;9914;51.008;4.300;2024-02-14T13:39:57;14.10;99.90
19538;DHT22;9914;51.008;4.300;2024-02-14T13:42:23;14.10;99.90
19538;DHT22;9914;51.008;4.300;2024-02-14T13:44:48;14.10;99.90
19538;DHT22;9914;51.008;4.300;2024-02-14T13:47:17;14.10;99.90
19538;DHT22;9914;51.008;4.300;2024-02-14T13:49:47;14.10;99.90
19538;DHT22;9914;51.008;4.300;2024-02-14T13:52:12;14.00;99.90
19538;DHT22;9914;51.008;4.300;2024-02-14T13:54:41;14.20;99.90
19538;DHT22;9914;51.008;4.300;2024-02-14T13:57:06;14.20;99.90
19538;DHT22;9914;51.008;4.300;2024-02-14T13:59:32;14.10;99.90
19538;DHT22;9914;51.008;4.300;2024-02-14T14:01:58;14.20;99.90
19538;DHT22;9914;51.008;4.300;2024-02-14T14:04:23;14.20;99.90
19538;DHT22;9914;51.008;4.300;2024-02-14T14:06:51;14.30;99.90
19538;DHT22;9914;51.008;4.300;2024-02-14T14:09:16;14.30;99.90
19538;DHT22;9914;51.008;4.300;2024-02-14T14:11:42;14.30;99.90
19538;DHT22;9914;51.008;4.300;2024-02-14T14:14:08;14.40;99.90
19538;DHT22;9914;51.008;4.300;2024-02-14T14:16:36;14.30;99.90
19538;DHT22;9914;51.008;4.300;2024-02-14T14:19:02;14.40;99.90
19538;DHT22;9914;51.008;4.300;2024-02-14T14:21:29;14.30;99.90
19538;DHT22;9914;51.008;4.300;2024-02-14T14:23:54;14.20;99.90
19538;DHT22;9914;51.008;4.300;2024-02-14T14:26:20;14.30;99.90
19538;DHT22;9914;51.008;4.300;2024-02-14T14:28:46;14.40;99.90
19538;DHT22;9914;51.008;4.300;2024-02-14T14:31:12;14.30;99.90
19538;DHT22;9914;51.008;4.300;2024-02-14T14:33:38;14.30;99.90
19538;DHT22;9914;51.008;4.300;2024-02-14T14:36:04;14.30;99.90
19538;DHT22;9914;51.008;4.300;2024-02-14T14:38:30;14.30;99.90
19538;DHT22;9914;51.008;4.300;2024-02-14T14:40:56;14.30;99.90
19538;DHT22;9914;51.008;4.300;2024-02-14T14:43:22;14.40;99.90
19538;DHT22;9914;51.008;4.300;2024-02-14T14:45:48;14.40;99.90
19538;DHT22;9914;51.008;4.300;2024-02-14T14:48:15;14.60;99.90
19538;DHT22;9914;51.008;4.300;2024-02-14T14:50:40;14.50;99.90
19538;DHT22;9914;51.008;4.300;2024-02-14T14:53:07;14.50;99.90
19538;DHT22;9914;51.008;4.300;2024-02-14T14:55:52;14.40;99.90
19538;DHT22;9914;51.008;4.300;2024-02-14T14:58:18;14.60;99.90
19538;DHT22;9914;51.008;4.300;2024-02-14T15:00:44;14.50;99.90
19538;DHT22;9914;51.008;4.300;2024-02-14T15:03:10;14.60;99.90
19538;DHT22;9914;51.008;4.300;2024-02-14T15:05:38;14.60;99.90
19538;DHT22;9914;51.008;4.300;2024-02-14T15:08:05;14.60;99.90
19538;DHT22;9914;51.008;4.300;2024-02-14T15:10:33;14.60;99.90
19538;DHT22;9914;51.008;4.300;2024-02-14T15:12:59;14.70;99.90
19538;DHT22;9914;51.008;4.300;2024-02-14T15:15:25;14.70;99.90
19538;DHT22;9914;51.008;4.300;2024-02-14T15:17:51;14.60;99.90
19538;DHT22;9914;51.008;4.300;2024-02-14T15:20:17;14.60;99.90
19538;DHT22;9914;51.008;4.300;2024-02-14T15:22:42;14.50;99.90
19538;DHT22;9914;51.008;4.300;2024-02-14T15:25:08;14.40;99.90
19538;DHT22;9914;51.008;4.300;2024-02-14T15:27:34;14.40;99.90
19538;DHT22;9914;51.008;4.300;2024-02-14T15:30:06;14.50;99.90
19538;DHT22;9914;51.008;4.300;2024-02-14T15:32:50;14.40;99.90
19538;DHT22;9914;51.008;4.300;2024-02-14T15:35:34;14.40;99.90
19538;DHT22;9914;51.008;4.300;2024-02-14T15:38:00;14.40;99.90
19538;DHT22;9914;51.008;4.300;2024-02-14T15:40:26;14.40;99.90
19538;DHT22;9914;51.008;4.300;2024-02-14T15:42:52;14.40;99.90
19538;DHT22;9914;51.008;4.300;2024-02-14T15:45:18;14.50;99.90